sensor_id;sensor_type;location;lat;lon;timestamp;temperature;humidity
14521;DHT22;7347;50.844;4.490;2022-12-18T08:18:07;-4.30;99.90
14521;DHT22;7347;50.844;4.490;2022-12-18T08:20:34;-4.30;99.90
14521;DHT22;7347;50.844;4.490;2022-12-18T08:23:01;-4.20;99.90
14521;DHT22;7347;50.844;4.490;2022-12-18T08:25:28;-4.10;99.90
14521;DHT22;7347;50.844;4.490;2022-12-18T08:27:54;-4.00;99.90
14521;DHT22;7347;50.844;4.490;2022-12-18T08:30:22;-3.80;99.90
14521;DHT22;7347;50.844;4.490;2022-12-18T08:32:51;-3.80;99.90
14521;DHT22;7347;50.844;4.490;2022-12-18T08:35:19;-3.70;99.90
14521;DHT22;7347;50.844;4.490;2022-12-18T08:37:46;-3.60;99.90
14521;DHT22;7347;50.844;4.490;2022-12-18T08:40:13;-3.50;99.90
14521;DHT22;7347;50.844;4.490;2022-12-18T08:42:40;-3.40;99.90
14521;DHT22;7347;50.844;4.490;2022-12-18T08:45:24;-3.40;99.90
14521;DHT22;7347;50.844;4.490;2022-12-18T08:47:51;-3.40;99.90
14521;DHT22;7347;50.844;4.490;2022-12-18T08:50:19;-3.30;99.90
14521;DHT22;7347;50.844;4.490;2022-12-18T08:52:46;-3.30;99.90
14521;DHT22;7347;50.844;4.490;2022-12-18T08:55:13;-3.30;99.90
14521;DHT22;7347;50.844;4.490;2022-12-18T08:57:40;-3.20;99.90
14521;DHT22;7347;50.844;4.490;2022-12-18T09:00:08;-3.20;99.90
14521;DHT22;7347;50.844;4.490;2022-12-18T09:02:35;-3.10;99.90
14521;DHT22;7347;50.844;4.490;2022-12-18T09:05:02;-3.10;99.90
14521;DHT22;7347;50.844;4.490;2022-12-18T09:07:30;-3.00;99.90
14521;DHT22;7347;50.844;4.490;2022-12-18T09:09:57;-2.80;99.90
14521;DHT22;7347;50.844;4.490;2022-12-18T09:12:23;-2.70;99.90
14521;DHT22;7347;50.844;4.490;2022-12-18T09:14:50;-2.60;99.90
14521;DHT22;7347;50.844;4.490;2022-12-18T09:17:17;-2.50;99.90
14521;DHT22;7347;50.844;4.490;2022-12-18T09:19:44;-2.30;99.90
14521;DHT22;7347;50.844;4.490;2022-12-18T09:22:11;-2.30;99.90
14521;DHT22;7347;50.844;4.490;2022-12-18T09:24:39;-2.30;99.90
14521;DHT22;7347;50.844;4.490;2022-12-18T09:27:05;-2.20;99.90
14521;DHT22;7347;50.844;4.490;2022-12-18T09:29:32;-2.10;99.90
14521;DHT22;7347;50.844;4.490;2022-12-18T09:31:59;-2.00;99.90
14521;DHT22;7347;50.844;4.490;2022-12-18T09:34:26;-2.00;99.90
14521;DHT22;7347;50.844;4.490;2022-12-18T09:36:53;-2.00;99.90
14521;DHT22;7347;50.844;4.490;2022-12-18T09:39:20;-2.00;99.90
14521;DHT22;7347;50.844;4.490;2022-12-18T09:41:52;-1.80;99.90
14521;DHT22;7347;50.844;4.490;2022-12-18T09:44:23;-1.70;99.90
14521;DHT22;7347;50.844;4.490;2022-12-18T09:46:57;-1.50;99.90
14521;DHT22;7347;50.844;4.490;2022-12-18T09:49:28;-1.60;99.90
14521;DHT22;7347;50.844;4.490;2022-12-18T09:51:59;-1.40;99.90
14521;DHT22;7347;50.844;4.490;2022-12-18T09:54:30;-1.20;99.90
14521;DHT22;7347;50.844;4.490;2022-12-18T09:56:59;-1.20;99.90
14521;DHT22;7347;50.844;4.490;2022-12-18T09:59:30;-1.20;99.90
14521;DHT22;7347;50.844;4.490;2022-12-18T10:01:58;-1.20;99.90
14521;DHT22;7347;50.844;4.490;2022-12-18T10:04:27;-1.20;99.90
14521;DHT22;7347;50.844;4.490;2022-12-18T10:07:02;-1.10;99.90
14521;DHT22;7347;50.844;4.490;2022-12-18T10:09:33;-0.90;99.90
14521;DHT22;7347;50.844;4.490;2022-12-18T10:12:08;-0.80;99.90
14521;DHT22;7347;50.844;4.490;2022-12-18T10:14:45;-0.70;99.90
14521;DHT22;7347;50.844;4.490;2022-12-18T10:17:21;-0.50;99.90
14521;DHT22;7347;50.844;4.490;2022-12-18T10:19:53;-0.40;99.90
14521;DHT22;7347;50.844;4.490;2022-12-18T10:22:27;-0.50;99.90
14521;DHT22;7347;50.844;4.490;2022-12-18T10:25:02;-0.80;99.90
14521;DHT22;7347;50.844;4.490;2022-12-18T10:27:31;-0.70;99.90
14521;DHT22;7347;50.844;4.490;2022-12-18T10:29:59;-0.60;99.90
14521;DHT22;7347;50.844;4.490;2022-12-18T10:32:30;-0.40;99.90
14521;DHT22;7347;50.844;4.490;2022-12-18T10:34:57;-0.30;99.90
14521;DHT22;7347;50.844;4.490;2022-12-18T10:37:26;-0.10;99.90
14521;DHT22;7347;50.844;4.490;2022-12-18T10:40:11;-0.20;99.90
14521;DHT22;7347;50.844;4.490;2022-12-18T10:42:39;-0.20;99.90
14521;DHT22;7347;50.844;4.490;2022-12-18T10:45:10;-0.40;99.90
14521;DHT22;7347;50.844;4.490;2022-12-18T10:47:42;-0.40;99.90
14521;DHT22;7347;50.844;4.490;2022-12-18T10:50:20;-0.30;99.90
14521;DHT22;7347;50.844;4.490;2022-12-18T10:52:55;-0.20;99.90
14521;DHT22;7347;50.844;4.490;2022-12-18T10:55:30;0.00;99.90
14521;DHT22;7347;50.844;4.490;2022-12-18T10:58:15;0.10;99.90
14521;DHT22;7347;50.844;4.490;2022-12-18T11:00:42;0.30;99.90
14521;DHT22;7347;50.844;4.490;2022-12-18T11:03:31;0.60;99.90
14521;DHT22;7347;50.844;4.490;2022-12-18T11:06:03;0.80;99.90
14521;DHT22;7347;50.844;4.490;2022-12-18T11:08:30;1.00;99.90
14521;DHT22;7347;50.844;4.490;2022-12-18T11:10:57;1.20;99.90
14521;DHT22;7347;50.844;4.490;2022-12-18T11:13:27;1.20;99.90
14521;DHT22;7347;50.844;4.490;2022-12-18T11:15:54;1.30;99.90
14521;DHT22;7347;50.844;4.490;2022-12-18T11:18:25;1.30;99.90
14521;DHT22;7347;50.844;4.490;2022-12-18T11:20:54;1.50;99.90
14521;DHT22;7347;50.844;4.490;2022-12-18T11:23:23;1.50;99.90
14521;DHT22;7347;50.844;4.490;2022-12-18T11:25:56;1.60;99.90
14521;DHT22;7347;50.844;4.490;2022-12-18T11:28:36;1.70;99.90
14521;DHT22;7347;50.844;4.490;2022-12-18T11:31:19;1.80;99.90
14521;DHT22;7347;50.844;4.490;2022-12-18T11:33:50;1.90;99.90
14521;DHT22;7347;50.844;4.490;2022-12-18T11:36:19;1.70;99.90
14521;DHT22;7347;50.844;4.490;2022-12-18T11:38:47;1.70;99.90
14521;DHT22;7347;50.844;4.490;2022-12-18T11:41:21;1.90;99.90
14521;DHT22;7347;50.844;4.490;2022-12-18T11:44:14;1.90;99.90
14521;DHT22;7347;50.844;4.490;2022-12-18T11:46:46;2.00;99.90
14521;DHT22;7347;50.844;4.490;2022-12-18T11:49:17;1.90;99.90
14521;DHT22;7347;50.844;4.490;2022-12-18T11:51:50;2.10;99.90
14521;DHT22;7347;50.844;4.490;2022-12-18T11:54:18;2.00;99.90
14521;DHT22;7347;50.844;4.490;2022-12-18T11:56:48;2.00;99.90
14521;DHT22;7347;50.844;4.490;2022-12-18T11:59:23;2.00;99.90
14521;DHT22;7347;50.844;4.490;2022-12-18T12:01:58;2.10;99.90
14521;DHT22;7347;50.844;4.490;2022-12-18T12:04:48;2.20;99.90
14521;DHT22;7347;50.844;4.490;2022-12-18T12:07:25;2.40;99.90
14521;DHT22;7347;50.844;4.490;2022-12-18T12:10:00;2.30;99.90
14521;DHT22;7347;50.844;4.490;2022-12-18T12:12:37;2.50;99.90
14521;DHT22;7347;50.844;4.490;2022-12-18T12:15:21;2.60;99.90
14521;DHT22;7347;50.844;4.490;2022-12-18T12:17:52;2.70;99.90
14521;DHT22;7347;50.844;4.490;2022-12-18T12:20:25;2.50;99.90
14521;DHT22;7347;50.844;4.490;2022-12-18T12:22:58;2.30;99.90
14521;DHT22;7347;50.844;4.490;2022-12-18T12:25:35;2.40;99.90
14521;DHT22;7347;50.844;4.490;2022-12-18T12:28:19;2.40;99.90
14521;DHT22;7347;50.844;4.490;2022-12-18T12:31:00;2.50;99.90
14521;DHT22;7347;50.844;4.490;2022-12-18T12:33:36;2.50;99.90
14521;DHT22;7347;50.844;4.490;2022-12-18T12:36:14;2.70;99.90
14521;DHT22;7347;50.844;4.490;2022-12-18T12:38:49;2.60;99.90
14521;DHT22;7347;50.844;4.490;2022-12-18T12:41:19;2.60;99.90
14521;DHT22;7347;50.844;4.490;2022-12-18T12:44:07;2.80;99.90
14521;DHT22;7347;50.844;4.490;2022-12-18T12:46:39;3.00;99.90
14521;DHT22;7347;50.844;4.490;2022-12-18T12:49:12;2.80;99.90
14521;DHT22;7347;50.844;4.490;2022-12-18T12:51:42;2.90;99.90
14521;DHT22;7347;50.844;4.490;2022-12-18T12:54:15;2.70;99.90
14521;DHT22;7347;50.844;4.490;2022-12-18T12:56:48;2.60;99.90
14521;DHT22;7347;50.844;4.490;2022-12-18T12:59:22;2.70;99.90
14521;DHT22;7347;50.844;4.490;2022-12-18T13:01:59;2.70;99.90
14521;DHT22;7347;50.844;4.490;2022-12-18T13:04:34;2.80;99.90
14521;DHT22;7347;50.844;4.490;2022-12-18T13:07:10;2.90;99.90
14521;DHT22;7347;50.844;4.490;2022-12-18T13:12:56;2.80;99.90
14521;DHT22;7347;50.844;4.490;2022-12-18T13:15:25;2.80;99.90
14521;DHT22;7347;50.844;4.490;2022-12-18T13:18:17;2.70;99.90
14521;DHT22;7347;50.844;4.490;2022-12-18T13:20:46;2.80;99.90
14521;DHT22;7347;50.844;4.490;2022-12-18T13:23:29;2.90;99.90
14521;DHT22;7347;50.844;4.490;2022-12-18T13:25:58;3.00;99.90
14521;DHT22;7347;50.844;4.490;2022-12-18T13:28:51;3.10;99.90
14521;DHT22;7347;50.844;4.490;2022-12-18T13:34:23;3.00;99.90
14521;DHT22;7347;50.844;4.490;2022-12-18T13:36:51;2.90;99.90
14521;DHT22;7347;50.844;4.490;2022-12-18T13:39:33;3.00;99.90
14521;DHT22;7347;50.844;4.490;2022-12-18T13:42:35;3.00;99.90
14521;DHT22;7347;50.844;4.490;2022-12-18T13:45:39;3.00;99.90
14521;DHT22;7347;50.844;4.490;2022-12-18T13:48:15;2.80;99.90
14521;DHT22;7347;50.844;4.490;2022-12-18T13:50:42;2.70;99.90
14521;DHT22;7347;50.844;4.490;2022-12-18T13:53:19;2.70;99.90
14521;DHT22;7347;50.844;4.490;2022-12-18T13:55:46;2.80;99.90
14521;DHT22;7347;50.844;4.490;2022-12-18T13:58:13;2.80;99.90
14521;DHT22;7347;50.844;4.490;2022-12-18T14:00:43;2.70;99.90
14521;DHT22;7347;50.844;4.490;2022-12-18T14:03:19;2.70;99.90
14521;DHT22;7347;50.844;4.490;2022-12-18T14:05:46;2.80;99.90
14521;DHT22;7347;50.844;4.490;2022-12-18T14:08:18;2.80;99.90
14521;DHT22;7347;50.844;4.490;2022-12-18T14:10:47;2.80;99.90
14521;DHT22;7347;50.844;4.490;2022-12-18T14:13:23;2.70;99.90
14521;DHT22;7347;50.844;4.490;2022-12-18T14:15:52;2.60;99.90
14521;DHT22;7347;50.844;4.490;2022-12-18T14:18:21;2.60;99.90
14521;DHT22;7347;50.844;4.490;2022-12-18T14:20:50;2.70;99.90
14521;DHT22;7347;50.844;4.490;2022-12-18T14:23:32;2.60;99.90
14521;DHT22;7347;50.844;4.490;2022-12-18T14:26:00;2.60;99.90
14521;DHT22;7347;50.844;4.490;2022-12-18T14:28:28;2.60;99.90
14521;DHT22;7347;50.844;4.490;2022-12-18T14:30:56;2.70;99.90
14521;DHT22;7347;50.844;4.490;2022-12-18T14:33:25;2.70;99.90
14521;DHT22;7347;50.844;4.490;2022-12-18T14:35:56;2.80;99.90
14521;DHT22;7347;50.844;4.490;2022-12-18T14:38:28;2.90;99.90
14521;DHT22;7347;50.844;4.490;2022-12-18T14:40:57;2.60;99.90
14521;DHT22;7347;50.844;4.490;2022-12-18T14:43:25;2.70;99.90
14521;DHT22;7347;50.844;4.490;2022-12-18T14:45:52;2.60;99.90
14521;DHT22;7347;50.844;4.490;2022-12-18T14:48:24;2.50;99.90
14521;DHT22;7347;50.844;4.490;2022-12-18T14:50:57;2.50;99.90
14521;DHT22;7347;50.844;4.490;2022-12-18T14:53:33;2.40;99.90
14521;DHT22;7347;50.844;4.490;2022-12-18T14:56:00;2.40;99.90
14521;DHT22;7347;50.844;4.490;2022-12-18T14:58:27;2.40;99.90
14521;DHT22;7347;50.844;4.490;2022-12-18T15:00:54;2.30;99.90
14521;DHT22;7347;50.844;4.490;2022-12-18T15:03:22;2.30;99.90
14521;DHT22;7347;50.844;4.490;2022-12-18T15:05:49;2.30;99.90
14521;DHT22;7347;50.844;4.490;2022-12-18T15:08:32;2.30;99.90
14521;DHT22;7347;50.844;4.490;2022-12-18T15:11:01;2.30;99.90
14521;DHT22;7347;50.844;4.490;2022-12-18T15:13:27;2.20;99.90
14521;DHT22;7347;50.844;4.490;2022-12-18T15:15:55;2.30;99.90
14521;DHT22;7347;50.844;4.490;2022-12-18T15:18:29;2.40;99.90
14521;DHT22;7347;50.844;4.490;2022-12-18T15:20:58;2.40;99.90
14521;DHT22;7347;50.844;4.490;2022-12-18T15:23:27;2.20;99.90
14521;DHT22;7347;50.844;4.490;2022-12-18T15:25:58;2.10;99.90
14521;DHT22;7347;50.844;4.490;2022-12-18T15:28:28;2.10;99.90
14521;DHT22;7347;50.844;4.490;2022-12-18T15:31:17;2.00;99.90
14521;DHT22;7347;50.844;4.490;2022-12-18T15:34:01;2.00;99.90
14521;DHT22;7347;50.844;4.490;2022-12-18T15:36:29;1.90;99.90
14521;DHT22;7347;50.844;4.490;2022-12-18T15:38:57;2.00;99.90
14521;DHT22;7347;50.844;4.490;2022-12-18T15:41:24;2.10;99.90
14521;DHT22;7347;50.844;4.490;2022-12-18T15:43:52;2.00;99.90
14521;DHT22;7347;50.844;4.490;2022-12-18T15:46:20;1.90;99.90
14521;DHT22;7347;50.844;4.490;2022-12-18T15:48:48;2.00;99.90
14521;DHT22;7347;50.844;4.490;2022-12-18T15:51:18;2.20;99.90
14521;DHT22;7347;50.844;4.490;2022-12-18T15:53:47;2.10;99.90
14521;DHT22;7347;50.844;4.490;2022-12-18T15:56:15;2.40;99.90
14521;DHT22;7347;50.844;4.490;2022-12-18T15:59:00;2.30;99.90
14521;DHT22;7347;50.844;4.490;2022-12-18T16:01:28;2.20;99.90
14521;DHT22;7347;50.844;4.490;2022-12-18T16:03:55;2.30;99.90
14521;DHT22;7347;50.844;4.490;2022-12-18T16:06:24;2.20;99.90
14521;DHT22;7347;50.844;4.490;2022-12-18T16:08:50;2.20;99.90
14521;DHT22;7347;50.844;4.490;2022-12-18T16:11:22;2.20;99.90
14521;DHT22;7347;50.844;4.490;2022-12-18T16:14:04;2.20;99.90
14521;DHT22;7347;50.844;4.490;2022-12-18T16:16:31;2.20;99.90
14521;DHT22;7347;50.844;4.490;2022-12-18T16:18:57;2.30;99.90
14521;DHT22;7347;50.844;4.490;2022-12-18T16:21:26;2.20;99.90
14521;DHT22;7347;50.844;4.490;2022-12-18T16:23:52;2.40;99.90
14521;DHT22;7347;50.844;4.490;2022-12-18T16:26:19;2.40;99.90
14521;DHT22;7347;50.844;4.490;2022-12-18T16:28:46;2.40;99.90
14521;DHT22;7347;50.844;4.490;2022-12-18T16:31:12;2.20;99.90
14521;DHT22;7347;50.844;4.490;2022-12-18T16:33:39;2.20;99.90
14521;DHT22;7347;50.844;4.490;2022-12-18T16:36:07;2.20;99.90
14521;DHT22;7347;50.844;4.490;2022-12-18T16:38:35;2.10;99.90
14521;DHT22;7347;50.844;4.490;2022-12-18T16:41:02;2.00;99.90
14521;DHT22;7347;50.844;4.490;2022-12-18T16:43:49;2.10;99.90
14521;DHT22;7347;50.844;4.490;2022-12-18T16:46:16;2.10;99.90
14521;DHT22;7347;50.844;4.490;2022-12-18T16:48:42;2.20;99.90
14521;DHT22;7347;50.844;4.490;2022-12-18T16:51:09;2.20;99.90
14521;DHT22;7347;50.844;4.490;2022-12-18T16:53:37;2.10;99.90
14521;DHT22;7347;50.844;4.490;2022-12-18T16:56:04;2.20;99.90
14521;DHT22;7347;50.844;4.490;2022-12-18T16:58:31;2.30;99.90
14521;DHT22;7347;50.844;4.490;2022-12-18T17:00:58;2.30;99.90
14521;DHT22;7347;50.844;4.490;2022-12-18T17:03:25;2.20;99.90
14521;DHT22;7347;50.844;4.490;2022-12-18T17:05:52;2.30;99.90
14521;DHT22;7347;50.844;4.490;2022-12-18T17:08:19;2.20;99.90
14521;DHT22;7347;50.844;4.490;2022-12-18T17:10:47;2.10;99.90
14521;DHT22;7347;50.844;4.490;2022-12-18T17:13:14;2.20;99.90
14521;DHT22;7347;50.844;4.490;2022-12-18T17:15:40;2.20;99.90
14521;DHT22;7347;50.844;4.490;2022-12-18T17:18:07;2.20;99.90
14521;DHT22;7347;50.844;4.490;2022-12-18T17:20:34;2.20;99.90
14521;DHT22;7347;50.844;4.490;2022-12-18T17:23:01;2.20;99.90
14521;DHT22;7347;50.844;4.490;2022-12-18T17:25:27;2.30;99.90
14521;DHT22;7347;50.844;4.490;2022-12-18T17:27:56;2.30;99.90
14521;DHT22;7347;50.844;4.490;2022-12-18T17:30:22;2.40;99.90
14521;DHT22;7347;50.844;4.490;2022-12-18T17:32:49;2.50;99.90
14521;DHT22;7347;50.844;4.490;2022-12-18T17:35:16;2.30;99.90
14521;DHT22;7347;50.844;4.490;2022-12-18T17:37:43;2.40;99.90
14521;DHT22;7347;50.844;4.490;2022-12-18T17:40:10;2.40;99.90
14521;DHT22;7347;50.844;4.490;2022-12-18T17:42:37;2.40;99.90
14521;DHT22;7347;50.844;4.490;2022-12-18T17:45:06;2.30;99.90
14521;DHT22;7347;50.844;4.490;2022-12-18T17:47:33;2.20;99.90
14521;DHT22;7347;50.844;4.490;2022-12-18T17:50:00;2.20;99.90
14521;DHT22;7347;50.844;4.490;2022-12-18T17:52:27;2.30;99.90
14521;DHT22;7347;50.844;4.490;2022-12-18T17:54:54;2.40;99.90
14521;DHT22;7347;50.844;4.490;2022-12-18T17:57:20;2.40;99.90
14521;DHT22;7347;50.844;4.490;2022-12-18T17:59:47;2.30;99.90
14521;DHT22;7347;50.844;4.490;2022-12-18T18:02:16;2.30;99.90
14521;DHT22;7347;50.844;4.490;2022-12-18T18:04:42;2.20;99.90
14521;DHT22;7347;50.844;4.490;2022-12-18T18:07:09;2.10;99.90
14521;DHT22;7347;50.844;4.490;2022-12-18T18:09:36;2.00;99.90
14521;DHT22;7347;50.844;4.490;2022-12-18T18:12:03;2.00;99.90
14521;DHT22;7347;50.844;4.490;2022-12-18T18:14:47;1.90;99.90
14521;DHT22;7347;50.844;4.490;2022-12-18T18:17:15;1.90;99.90
14521;DHT22;7347;50.844;4.490;2022-12-18T18:19:42;1.90;99.90
14521;DHT22;7347;50.844;4.490;2022-12-18T18:22:09;1.80;99.90
14521;DHT22;7347;50.844;4.490;2022-12-18T18:24:36;1.90;99.90
14521;DHT22;7347;50.844;4.490;2022-12-18T18:27:03;1.80;99.90
14521;DHT22;7347;50.844;4.490;2022-12-18T18:29:30;1.80;99.90
14521;DHT22;7347;50.844;4.490;2022-12-18T18:31:57;1.90;99.90
14521;DHT22;7347;50.844;4.490;2022-12-18T18:34:26;1.90;99.90
14521;DHT22;7347;50.844;4.490;2022-12-18T18:36:54;1.80;99.90
14521;DHT22;7347;50.844;4.490;2022-12-18T18:39:20;1.90;99.90
14521;DHT22;7347;50.844;4.490;2022-12-18T18:41:47;1.90;99.90
14521;DHT22;7347;50.844;4.490;2022-12-18T18:44:15;1.90;99.90
14521;DHT22;7347;50.844;4.490;2022-12-18T18:46:42;1.80;99.90
14521;DHT22;7347;50.844;4.490;2022-12-18T18:49:09;1.90;99.90
14521;DHT22;7347;50.844;4.490;2022-12-18T18:51:37;1.80;99.90
14521;DHT22;7347;50.844;4.490;2022-12-18T18:54:04;1.70;99.90
14521;DHT22;7347;50.844;4.490;2022-12-18T18:56:31;1.70;99.90
14521;DHT22;7347;50.844;4.490;2022-12-18T18:58:58;1.80;99.90
14521;DHT22;7347;50.844;4.490;2022-12-18T19:01:25;1.70;99.90
14521;DHT22;7347;50.844;4.490;2022-12-18T19:03:53;1.70;99.90
14521;DHT22;7347;50.844;4.490;2022-12-18T19:06:22;1.70;99.90
14521;DHT22;7347;50.844;4.490;2022-12-18T19:08:51;1.80;99.90
14521;DHT22;7347;50.844;4.490;2022-12-18T19:11:19;1.70;99.90
14521;DHT22;7347;50.844;4.490;2022-12-18T19:14:05;1.70;99.90
14521;DHT22;7347;50.844;4.490;2022-12-18T19:16:33;1.80;99.90
14521;DHT22;7347;50.844;4.490;2022-12-18T19:19:00;1.80;99.90
14521;DHT22;7347;50.844;4.490;2022-12-18T19:21:27;1.80;99.90
14521;DHT22;7347;50.844;4.490;2022-12-18T19:23:55;1.90;99.90
14521;DHT22;7347;50.844;4.490;2022-12-18T19:26:23;2.00;99.90
14521;DHT22;7347;50.844;4.490;2022-12-18T19:28:49;1.90;99.90
14521;DHT22;7347;50.844;4.490;2022-12-18T19:31:17;1.90;99.90
14521;DHT22;7347;50.844;4.490;2022-12-18T19:33:46;2.00;99.90
14521;DHT22;7347;50.844;4.490;2022-12-18T19:36:17;2.10;99.90
14521;DHT22;7347;50.844;4.490;2022-12-18T19:38:44;2.10;99.90
14521;DHT22;7347;50.844;4.490;2022-12-18T19:41:13;2.10;99.90
14521;DHT22;7347;50.844;4.490;2022-12-18T19:43:40;2.10;99.90
14521;DHT22;7347;50.844;4.490;2022-12-18T19:46:08;2.20;99.90
14521;DHT22;7347;50.844;4.490;2022-12-18T19:48:36;2.20;99.90
14521;DHT22;7347;50.844;4.490;2022-12-18T19:51:04;2.10;99.90
14521;DHT22;7347;50.844;4.490;2022-12-18T19:53:32;2.10;99.90
14521;DHT22;7347;50.844;4.490;2022-12-18T19:56:03;2.10;99.90
14521;DHT22;7347;50.844;4.490;2022-12-18T19:58:31;2.10;99.90
14521;DHT22;7347;50.844;4.490;2022-12-18T20:00:58;2.10;99.90
14521;DHT22;7347;50.844;4.490;2022-12-18T20:03:25;2.10;99.90
14521;DHT22;7347;50.844;4.490;2022-12-18T20:05:51;2.20;99.90
14521;DHT22;7347;50.844;4.490;2022-12-18T20:08:18;2.20;99.90
14521;DHT22;7347;50.844;4.490;2022-12-18T20:10:45;2.20;99.90
14521;DHT22;7347;50.844;4.490;2022-12-18T20:13:13;2.20;99.90
14521;DHT22;7347;50.844;4.490;2022-12-18T20:15:41;2.20;99.90
14521;DHT22;7347;50.844;4.490;2022-12-18T20:18:09;2.20;99.90
14521;DHT22;7347;50.844;4.490;2022-12-18T20:20:36;2.10;99.90
14521;DHT22;7347;50.844;4.490;2022-12-18T20:23:03;2.10;99.90
14521;DHT22;7347;50.844;4.490;2022-12-18T20:25:29;2.30;99.90
14521;DHT22;7347;50.844;4.490;2022-12-18T20:27:56;2.20;99.90
14521;DHT22;7347;50.844;4.490;2022-12-18T20:30:23;2.20;99.90
14521;DHT22;7347;50.844;4.490;2022-12-18T20:32:51;2.10;99.90
14521;DHT22;7347;50.844;4.490;2022-12-18T20:35:18;2.20;99.90
14521;DHT22;7347;50.844;4.490;2022-12-18T20:37:45;2.20;99.90
14521;DHT22;7347;50.844;4.490;2022-12-18T20:40:11;2.20;99.90
14521;DHT22;7347;50.844;4.490;2022-12-18T20:42:38;2.10;99.90
14521;DHT22;7347;50.844;4.490;2022-12-18T20:45:06;2.10;99.90
14521;DHT22;7347;50.844;4.490;2022-12-18T20:47:33;2.20;99.90
14521;DHT22;7347;50.844;4.490;2022-12-18T20:50:01;2.20;99.90
14521;DHT22;7347;50.844;4.490;2022-12-18T20:52:28;2.20;99.90
14521;DHT22;7347;50.844;4.490;2022-12-18T20:54:55;2.20;99.90
14521;DHT22;7347;50.844;4.490;2022-12-18T20:57:22;2.20;99.90
14521;DHT22;7347;50.844;4.490;2022-12-18T20:59:49;2.30;99.90
14521;DHT22;7347;50.844;4.490;2022-12-18T21:02:17;2.30;99.90
14521;DHT22;7347;50.844;4.490;2022-12-18T21:04:47;2.40;99.90
14521;DHT22;7347;50.844;4.490;2022-12-18T21:07:16;2.50;99.90
14521;DHT22;7347;50.844;4.490;2022-12-18T21:09:43;2.50;99.90
14521;DHT22;7347;50.844;4.490;2022-12-18T21:12:12;2.40;99.90
14521;DHT22;7347;50.844;4.490;2022-12-18T21:14:58;2.30;99.90
14521;DHT22;7347;50.844;4.490;2022-12-18T21:17:25;2.40;99.90
14521;DHT22;7347;50.844;4.490;2022-12-18T21:19:52;2.50;99.90
14521;DHT22;7347;50.844;4.490;2022-12-18T21:22:20;2.50;99.90
14521;DHT22;7347;50.844;4.490;2022-12-18T21:24:47;2.50;99.90
14521;DHT22;7347;50.844;4.490;2022-12-18T21:27:13;2.50;99.90
14521;DHT22;7347;50.844;4.490;2022-12-18T21:29:40;2.40;99.90
14521;DHT22;7347;50.844;4.490;2022-12-18T21:32:08;2.40;99.90
14521;DHT22;7347;50.844;4.490;2022-12-18T21:34:35;2.40;99.90
14521;DHT22;7347;50.844;4.490;2022-12-18T21:37:02;2.50;99.90
14521;DHT22;7347;50.844;4.490;2022-12-18T21:39:31;2.60;99.90
14521;DHT22;7347;50.844;4.490;2022-12-18T21:41:58;2.60;99.90
14521;DHT22;7347;50.844;4.490;2022-12-18T21:44:42;2.50;99.90
14521;DHT22;7347;50.844;4.490;2022-12-18T21:47:09;2.50;99.90
14521;DHT22;7347;50.844;4.490;2022-12-18T21:49:36;2.50;99.90
14521;DHT22;7347;50.844;4.490;2022-12-18T21:52:03;2.50;99.90
14521;DHT22;7347;50.844;4.490;2022-12-18T21:54:33;2.60;99.90
14521;DHT22;7347;50.844;4.490;2022-12-18T21:57:01;2.60;99.90
14521;DHT22;7347;50.844;4.490;2022-12-18T21:59:30;2.60;99.90
14521;DHT22;7347;50.844;4.490;2022-12-18T22:01:58;2.60;99.90
14521;DHT22;7347;50.844;4.490;2022-12-18T22:04:26;2.60;99.90
14521;DHT22;7347;50.844;4.490;2022-12-18T22:06:53;2.70;99.90
14521;DHT22;7347;50.844;4.490;2022-12-18T22:09:22;2.70;99.90
14521;DHT22;7347;50.844;4.490;2022-12-18T22:11:50;2.70;99.90
14521;DHT22;7347;50.844;4.490;2022-12-18T22:14:18;2.70;99.90
